Time;durP1;ratioP1;P1;durP2;ratioP2;P2;SDS_P1;SDS_P2;PMS_P1;PMS_P2;Temp;Humidity;BMP_temperature;BMP_pressure;BME280_temperature;BME280_humidity;BME280_pressure;Samples;Min_cycle;Max_cycle;Signal;HPM_P1;HPM_P2
2024/01/30 00:00:00;;;;;;;8.00;7.20;;;;;;;;;;6231623;28;20069;-74
2024/01/30 00:03:02;;;;;;;8.55;7.28;;;;;;;;;;6234511;28;20833;-74
2024/01/30 00:06:05;;;;;;;8.05;7.35;;;;;;;;;;6216922;28;20956;-74
2024/01/30 00:09:07;;;;;;;7.68;6.97;;;;;;;;;;6226488;28;20049;-74
2024/01/30 00:12:10;;;;;;;4.80;3.50;;;;;;;;;;6233283;28;20650;-75
2024/01/30 00:15:12;;;;;;;6.18;5.57;;;;;;;;;;6234535;28;20722;-74
2024/01/30 00:18:14;;;;;;;5.32;3.22;;;;;;;;;;6229774;28;20325;-74
2024/01/30 00:21:16;;;;;;;7.65;7.05;;;;;;;;;;6219951;28;20157;-74
2024/01/30 00:24:18;;;;;;;7.20;6.22;;;;;;;;;;6218576;28;20517;-75
2024/01/30 00:27:20;;;;;;;7.07;6.47;;;;;;;;;;6231106;28;20069;-74
2024/01/30 00:30:22;;;;;;;8.07;7.38;;;;;;;;;;6217584;28;20064;-75
2024/01/30 00:33:25;;;;;;;7.55;6.95;;;;;;;;;;6228082;28;20071;-74
2024/01/30 00:36:30;;;;;;;9.93;8.93;;;;;;;;;;6224455;28;20058;-74
2024/01/30 00:39:32;;;;;;;7.45;6.75;;;;;;;;;;6217079;28;20073;-74
2024/01/30 00:42:34;;;;;;;7.50;6.85;;;;;;;;;;6215651;28;20675;-74
2024/01/30 00:45:36;;;;;;;4.95;2.60;;;;;;;;;;6227678;28;20574;-73
2024/01/30 00:48:38;;;;;;;7.30;6.60;;;;;;;;;;6265516;28;20064;-73
2024/01/30 00:51:40;;;;;;;5.22;3.35;;;;;;;;;;6233177;28;20570;-75
2024/01/30 00:54:42;;;;;;;8.27;7.57;;;;;;;;;;6233748;28;20037;-74
2024/01/30 00:57:45;;;;;;;5.70;5.15;;;;;;;;;;6232131;28;20227;-73
2024/01/30 01:00:47;;;;;;;6.57;6.03;;;;;;;;;;6229956;28;20716;-73
2024/01/30 01:03:49;;;;;;;8.95;6.22;;;;;;;;;;6232896;28;20692;-75
2024/01/30 01:06:52;;;;;;;6.30;5.72;;;;;;;;;;6236405;28;20120;-74
2024/01/30 01:09:54;;;;;;;6.82;6.22;;;;;;;;;;6232604;28;20615;-74
2024/01/30 01:12:56;;;;;;;8.90;6.80;;;;;;;;;;6231605;28;20044;-73
2024/01/30 01:15:59;;;;;;;8.02;6.65;;;;;;;;;;6217196;28;20110;-74
2024/01/30 01:19:02;;;;;;;10.02;7.90;;;;;;;;;;6229504;28;20108;-74
2024/01/30 01:22:04;;;;;;;9.48;8.70;;;;;;;;;;6225724;28;20052;-73
2024/01/30 01:25:08;;;;;;;8.57;7.93;;;;;;;;;;6231472;28;20033;-74
2024/01/30 01:28:10;;;;;;;12.25;9.05;;;;;;;;;;6231623;28;20049;-73
2024/01/30 01:31:13;;;;;;;11.95;7.38;;;;;;;;;;6231744;28;20116;-73
2024/01/30 01:34:15;;;;;;;8.23;7.25;;;;;;;;;;6235769;28;20056;-74
2024/01/30 01:37:18;;;;;;;11.45;10.50;;;;;;;;;;6230634;28;20140;-74
2024/01/30 01:40:24;;;;;;;9.00;8.20;;;;;;;;;;6245767;28;20049;-73
2024/01/30 01:43:26;;;;;;;11.00;9.93;;;;;;;;;;6230361;28;20045;-74
2024/01/30 01:46:30;;;;;;;6.20;5.68;;;;;;;;;;6229180;28;20053;-74
2024/01/30 01:49:32;;;;;;;10.93;10.07;;;;;;;;;;6214298;28;20115;-74
2024/01/30 01:52:36;;;;;;;10.60;9.82;;;;;;;;;;6230596;28;20049;-74
2024/01/30 01:55:38;;;;;;;6.50;5.90;;;;;;;;;;6226991;28;20053;-74
2024/01/30 01:58:40;;;;;;;8.38;7.32;;;;;;;;;;6214937;28;20833;-74
2024/01/30 02:01:43;;;;;;;15.55;8.88;;;;;;;;;;6231872;28;20037;-74
2024/01/30 02:04:45;;;;;;;9.25;8.48;;;;;;;;;;6238719;28;20046;-73
2024/01/30 02:07:47;;;;;;;11.20;8.70;;;;;;;;;;6214157;28;20052;-73
2024/01/30 02:10:51;;;;;;;7.72;7.05;;;;;;;;;;6227246;28;20535;-74
2024/01/30 02:13:53;;;;;;;6.05;5.47;;;;;;;;;;6216289;28;20849;-74
2024/01/30 02:16:55;;;;;;;6.55;6.13;;;;;;;;;;6213142;28;20068;-74
2024/01/30 02:19:57;;;;;;;7.53;6.97;;;;;;;;;;6226575;28;20046;-74
2024/01/30 02:23:01;;;;;;;6.97;6.43;;;;;;;;;;6214090;28;20592;-74
2024/01/30 02:26:03;;;;;;;7.60;7.10;;;;;;;;;;6221066;28;20060;-75
2024/01/30 02:29:05;;;;;;;5.40;4.82;;;;;;;;;;6228338;28;20794;-73
2024/01/30 02:32:09;;;;;;;5.45;4.95;;;;;;;;;;6227674;28;20053;-74
2024/01/30 02:35:11;;;;;;;6.50;6.03;;;;;;;;;;6230853;28;20041;-74
2024/01/30 02:38:15;;;;;;;5.60;5.10;;;;;;;;;;6214183;28;20053;-74
2024/01/30 02:41:17;;;;;;;6.43;5.93;;;;;;;;;;6212387;28;20118;-75
2024/01/30 02:44:19;;;;;;;6.30;5.80;;;;;;;;;;6229306;28;20072;-73
2024/01/30 02:47:21;;;;;;;5.50;5.10;;;;;;;;;;6224488;28;20106;-75
2024/01/30 02:50:23;;;;;;;6.93;6.43;;;;;;;;;;6214471;28;20070;-74
2024/01/30 02:53:25;;;;;;;5.25;4.85;;;;;;;;;;6228316;28;20049;-74
2024/01/30 02:56:28;;;;;;;4.95;4.65;;;;;;;;;;6227694;28;20057;-73
2024/01/30 02:59:33;;;;;;;6.68;6.07;;;;;;;;;;6218707;28;20048;-74
2024/01/30 03:02:37;;;;;;;4.40;2.58;;;;;;;;;;6234766;28;20135;-74
2024/01/30 03:05:39;;;;;;;5.80;5.38;;;;;;;;;;6212416;28;20114;-74
2024/01/30 03:08:41;;;;;;;6.10;5.00;;;;;;;;;;6230445;28;20129;-74
2024/01/30 03:11:43;;;;;;;13.05;9.40;;;;;;;;;;6229516;28;20045;-73
2024/01/30 03:14:46;;;;;;;6.18;5.57;;;;;;;;;;6223846;28;20826;-74
2024/01/30 03:17:48;;;;;;;10.02;9.43;;;;;;;;;;6233874;28;20052;-74
2024/01/30 03:20:52;;;;;;;7.88;7.28;;;;;;;;;;6215299;28;20053;-73
2024/01/30 03:23:54;;;;;;;6.70;5.75;;;;;;;;;;6221958;28;20045;-74
2024/01/30 03:26:56;;;;;;;12.27;9.10;;;;;;;;;;6217381;28;20049;-73
2024/01/30 03:29:58;;;;;;;5.80;5.28;;;;;;;;;;6231815;28;20503;-74
2024/01/30 03:33:02;;;;;;;5.63;5.13;;;;;;;;;;6237371;28;20053;-74
2024/01/30 03:36:05;;;;;;;7.45;6.85;;;;;;;;;;6235358;28;20045;-74
2024/01/30 03:39:08;;;;;;;9.00;8.25;;;;;;;;;;6229752;28;20211;-74
2024/01/30 03:42:10;;;;;;;7.55;3.50;;;;;;;;;;6213142;28;20631;-74
2024/01/30 03:45:12;;;;;;;6.50;5.97;;;;;;;;;;6236373;28;20133;-75
2024/01/30 03:48:14;;;;;;;15.48;11.80;;;;;;;;;;6219760;28;20060;-74
2024/01/30 03:51:16;;;;;;;18.08;12.27;;;;;;;;;;6240559;28;20668;-74
2024/01/30 03:54:18;;;;;;;20.40;18.08;;;;;;;;;;6233010;28;20041;-73
2024/01/30 03:57:21;;;;;;;8.15;7.45;;;;;;;;;;6234526;28;20057;-73
2024/01/30 04:00:23;;;;;;;7.57;6.93;;;;;;;;;;6235367;28;20045;-74
2024/01/30 04:03:25;;;;;;;11.32;9.23;;;;;;;;;;6231943;28;20128;-74
2024/01/30 04:06:27;;;;;;;8.25;7.53;;;;;;;;;;6201488;28;20046;-73
2024/01/30 04:09:29;;;;;;;6.78;6.28;;;;;;;;;;6231293;28;20094;-73
2024/01/30 04:12:32;;;;;;;8.65;7.80;;;;;;;;;;6220711;28;20075;-74
2024/01/30 04:15:35;;;;;;;7.50;6.68;;;;;;;;;;6233262;28;20038;-73
2024/01/30 04:18:37;;;;;;;9.00;8.13;;;;;;;;;;6231463;28;20677;-75
2024/01/30 04:21:39;;;;;;;11.05;8.70;;;;;;;;;;6231733;28;20437;-73
2024/01/30 04:24:42;;;;;;;7.55;5.25;;;;;;;;;;6232292;28;20455;-74
2024/01/30 04:27:44;;;;;;;9.38;8.48;;;;;;;;;;6213528;28;20050;-73
2024/01/30 04:30:46;;;;;;;10.75;8.35;;;;;;;;;;6224760;28;20048;-75
2024/01/30 04:33:48;;;;;;;7.57;4.60;;;;;;;;;;6236088;28;20073;-74
2024/01/30 04:36:51;;;;;;;12.15;10.40;;;;;;;;;;6228597;28;20144;-74
2024/01/30 04:39:54;;;;;;;12.02;8.95;;;;;;;;;;6230264;28;20049;-74
2024/01/30 04:42:56;;;;;;;18.58;15.60;;;;;;;;;;6236490;28;20077;-75
2024/01/30 04:45:58;;;;;;;13.32;10.60;;;;;;;;;;6231376;28;20081;-74
2024/01/30 04:49:00;;;;;;;11.18;8.50;;;;;;;;;;6233560;28;20467;-74
2024/01/30 04:52:03;;;;;;;11.27;5.38;;;;;;;;;;6218021;28;20443;-74
2024/01/30 04:55:05;;;;;;;11.05;9.02;;;;;;;;;;6231964;28;20033;-73
2024/01/30 04:58:07;;;;;;;17.65;14.57;;;;;;;;;;6225021;28;20546;-74
2024/01/30 05:01:09;;;;;;;15.85;12.85;;;;;;;;;;6231445;28;20041;-74
2024/01/30 05:04:13;;;;;;;20.25;17.05;;;;;;;;;;6257430;28;20053;-74
2024/01/30 05:07:18;;;;;;;13.93;12.48;;;;;;;;;;6236367;28;20044;-74
2024/01/30 05:10:21;;;;;;;17.10;8.75;;;;;;;;;;6216083;28;20532;-74
2024/01/30 05:13:23;;;;;;;8.32;7.47;;;;;;;;;;6233074;28;20049;-74
2024/01/30 05:16:25;;;;;;;10.48;9.57;;;;;;;;;;6230397;28;20452;-74
2024/01/30 05:19:27;;;;;;;7.95;7.25;;;;;;;;;;6227947;28;20037;-73
2024/01/30 05:22:29;;;;;;;8.13;7.43;;;;;;;;;;6227982;28;20050;-74
2024/01/30 05:25:32;;;;;;;8.27;7.57;;;;;;;;;;6226530;28;20042;-74
2024/01/30 05:28:34;;;;;;;14.90;13.48;;;;;;;;;;6236958;28;20053;-74
2024/01/30 05:31:36;;;;;;;12.98;11.57;;;;;;;;;;6209431;28;20057;-74
2024/01/30 05:34:38;;;;;;;11.40;10.30;;;;;;;;;;6232949;28;20102;-74
2024/01/30 05:37:40;;;;;;;14.27;13.20;;;;;;;;;;6234079;28;20042;-75
2024/01/30 05:40:43;;;;;;;11.32;9.65;;;;;;;;;;6230409;28;20052;-74
2024/01/30 05:43:45;;;;;;;10.23;9.05;;;;;;;;;;6232457;28;20106;-74
2024/01/30 05:46:47;;;;;;;8.30;6.68;;;;;;;;;;6233218;28;20045;-74
2024/01/30 05:49:49;;;;;;;11.68;10.02;;;;;;;;;;6231380;28;20049;-75
2024/01/30 05:52:52;;;;;;;13.52;11.38;;;;;;;;;;6236474;28;20624;-75
2024/01/30 05:55:55;;;;;;;10.75;8.68;;;;;;;;;;6257574;28;20035;-73
2024/01/30 05:58:58;;;;;;;11.80;10.38;;;;;;;;;;6229919;28;20042;-73
2024/01/30 06:02:00;;;;;;;11.60;9.93;;;;;;;;;;6217698;28;20055;-73
2024/01/30 06:05:02;;;;;;;8.77;7.88;;;;;;;;;;6242459;28;20066;-73
2024/01/30 06:08:05;;;;;;;8.73;7.32;;;;;;;;;;6231092;28;20041;-74
2024/01/30 06:11:11;;;;;;;10.93;9.85;;;;;;;;;;6234227;28;20083;-74
2024/01/30 06:14:13;;;;;;;8.23;7.03;;;;;;;;;;6235448;28;20094;-79
2024/01/30 06:17:15;;;;;;;15.68;14.38;;;;;;;;;;6231854;28;20049;-73
2024/01/30 06:20:18;;;;;;;15.68;13.75;;;;;;;;;;6234305;28;20053;-74
2024/01/30 06:23:20;;;;;;;17.27;15.43;;;;;;;;;;6236190;28;20122;-74
2024/01/30 06:26:22;;;;;;;12.90;11.60;;;;;;;;;;6194649;28;20045;-75
2024/01/30 06:29:26;;;;;;;9.95;8.98;;;;;;;;;;6228125;28;20507;-75
2024/01/30 06:32:28;;;;;;;9.38;8.27;;;;;;;;;;6231962;28;20606;-73
2024/01/30 06:35:31;;;;;;;11.93;9.43;;;;;;;;;;6228371;28;20053;-77
2024/01/30 06:38:33;;;;;;;8.60;7.75;;;;;;;;;;6259459;28;20067;-76
2024/01/30 06:41:35;;;;;;;11.10;8.25;;;;;;;;;;6222756;28;20425;-73
2024/01/30 06:44:37;;;;;;;8.35;7.50;;;;;;;;;;6228757;28;20063;-73
2024/01/30 06:47:39;;;;;;;8.10;7.30;;;;;;;;;;6231824;28;20037;-73
2024/01/30 06:50:42;;;;;;;17.42;12.27;;;;;;;;;;6233444;28;20064;-73
2024/01/30 06:53:44;;;;;;;11.73;10.57;;;;;;;;;;6246715;28;20527;-74
2024/01/30 06:56:46;;;;;;;13.30;9.68;;;;;;;;;;6217308;28;20049;-74
2024/01/30 06:59:49;;;;;;;11.43;10.07;;;;;;;;;;6233335;28;20210;-75
2024/01/30 07:02:53;;;;;;;9.55;8.68;;;;;;;;;;6261322;28;20046;-74
2024/01/30 07:05:55;;;;;;;14.25;11.70;;;;;;;;;;6203467;28;20037;-73
2024/01/30 07:08:57;;;;;;;20.20;11.40;;;;;;;;;;6233348;28;20046;-74
2024/01/30 07:11:59;;;;;;;13.10;11.73;;;;;;;;;;6231260;28;20041;-74
2024/01/30 07:15:02;;;;;;;12.45;7.85;;;;;;;;;;6239191;28;20086;-73
2024/01/30 07:18:05;;;;;;;7.13;6.20;;;;;;;;;;6236467;28;20049;-74
2024/01/30 07:21:08;;;;;;;8.05;7.22;;;;;;;;;;6229500;28;20075;-74
2024/01/30 07:24:10;;;;;;;9.10;7.50;;;;;;;;;;6249162;28;20111;-73
2024/01/30 07:27:13;;;;;;;11.23;9.43;;;;;;;;;;6244960;28;20054;-73
2024/01/30 07:30:17;;;;;;;8.63;7.75;;;;;;;;;;6231511;28;20049;-74
2024/01/30 07:33:19;;;;;;;10.27;9.30;;;;;;;;;;6234893;28;20110;-73
2024/01/30 07:36:21;;;;;;;11.77;10.55;;;;;;;;;;6200833;28;20061;-72
2024/01/30 07:39:23;;;;;;;8.73;7.93;;;;;;;;;;6203514;28;20133;-73
2024/01/30 07:42:25;;;;;;;11.07;5.00;;;;;;;;;;6241800;28;20215;-73
2024/01/30 07:45:32;;;;;;;7.20;6.50;;;;;;;;;;6233266;28;20095;-74
2024/01/30 07:48:36;;;;;;;8.32;7.45;;;;;;;;;;6235201;28;20052;-73
2024/01/30 07:51:39;;;;;;;9.35;8.45;;;;;;;;;;6234711;28;20182;-73
2024/01/30 07:54:47;;;;;;;8.25;7.45;;;;;;;;;;6186437;28;20049;-73
2024/01/30 07:57:52;;;;;;;7.65;7.07;;;;;;;;;;6237460;28;20045;-74
2024/01/30 08:00:54;;;;;;;6.72;6.03;;;;;;;;;;6250495;28;20046;-74
2024/01/30 08:03:56;;;;;;;12.18;11.13;;;;;;;;;;6216695;28;20052;-73
2024/01/30 08:06:59;;;;;;;13.75;9.80;;;;;;;;;;6217693;28;20049;-73
2024/01/30 08:10:01;;;;;;;7.63;3.60;;;;;;;;;;6201055;28;20053;-73
2024/01/30 08:13:03;;;;;;;8.70;7.93;;;;;;;;;;6246523;28;20183;-73
2024/01/30 08:16:06;;;;;;;8.98;8.07;;;;;;;;;;6232530;28;20049;-73
2024/01/30 08:19:08;;;;;;;10.40;9.40;;;;;;;;;;6217694;28;20041;-73
2024/01/30 08:22:12;;;;;;;8.45;7.75;;;;;;;;;;6264661;28;20167;-73
2024/01/30 08:25:14;;;;;;;6.13;4.60;;;;;;;;;;6229190;28;20670;-73
2024/01/30 08:28:16;;;;;;;3.28;2.60;;;;;;;;;;6230485;28;20069;-73
2024/01/30 08:31:22;;;;;;;5.25;2.95;;;;;;;;;;6228734;28;20627;-74
2024/01/30 08:34:24;;;;;;;7.18;6.60;;;;;;;;;;6211082;28;20042;-73
2024/01/30 08:37:26;;;;;;;9.07;8.10;;;;;;;;;;6236751;28;20939;-74
2024/01/30 08:40:30;;;;;;;6.68;6.15;;;;;;;;;;6235085;28;20207;-74
2024/01/30 08:43:33;;;;;;;6.10;5.70;;;;;;;;;;6232197;28;20102;-73
2024/01/30 08:46:36;;;;;;;4.32;3.92;;;;;;;;;;6200916;28;20595;-73
2024/01/30 08:49:38;;;;;;;8.77;8.05;;;;;;;;;;6213819;28;20056;-74
2024/01/30 08:52:40;;;;;;;7.38;6.78;;;;;;;;;;6230192;28;20049;-75
2024/01/30 08:55:42;;;;;;;6.95;6.35;;;;;;;;;;6216296;28;20049;-74
2024/01/30 08:58:44;;;;;;;5.35;4.95;;;;;;;;;;6227697;28;20916;-74
2024/01/30 09:01:47;;;;;;;5.55;4.63;;;;;;;;;;6231245;28;20651;-75
2024/01/30 09:05:04;;;;;;;5.60;5.10;;;;;;;;;;6233885;28;20099;-74
2024/01/30 09:08:06;;;;;;;6.88;6.32;;;;;;;;;;6233787;28;20045;-73
2024/01/30 09:11:13;;;;;;;8.40;7.60;;;;;;;;;;6213696;28;20073;-73
2024/01/30 09:14:15;;;;;;;6.45;5.82;;;;;;;;;;6230158;28;20462;-73
2024/01/30 09:17:17;;;;;;;12.43;8.27;;;;;;;;;;6230640;28;20869;-73
2024/01/30 09:20:20;;;;;;;10.23;9.20;;;;;;;;;;6228327;28;20045;-74
2024/01/30 09:23:22;;;;;;;8.25;6.47;;;;;;;;;;6230477;28;20079;-73
2024/01/30 09:26:24;;;;;;;7.03;6.43;;;;;;;;;;6227440;28;20525;-74
2024/01/30 09:29:28;;;;;;;7.50;6.90;;;;;;;;;;6229334;28;20126;-75
2024/01/30 09:32:30;;;;;;;6.32;4.22;;;;;;;;;;6230701;28;20736;-73
2024/01/30 09:35:33;;;;;;;6.25;5.75;;;;;;;;;;6228868;28;20041;-73
2024/01/30 09:38:35;;;;;;;5.18;4.68;;;;;;;;;;6229722;28;20448;-73
2024/01/30 09:41:46;;;;;;;6.50;5.80;;;;;;;;;;6231041;28;20042;-73
2024/01/30 09:44:50;;;;;;;6.50;5.85;;;;;;;;;;6230462;28;20057;-72
2024/01/30 09:47:53;;;;;;;5.45;4.72;;;;;;;;;;6240379;28;21665;-73
2024/01/30 09:50:56;;;;;;;5.63;3.35;;;;;;;;;;6232795;28;20718;-73
2024/01/30 09:53:58;;;;;;;4.88;2.38;;;;;;;;;;6240792;28;20646;-73
2024/01/30 09:57:00;;;;;;;6.43;5.75;;;;;;;;;;6234479;28;20069;-73
2024/01/30 10:00:09;;;;;;;5.65;5.15;;;;;;;;;;6240026;28;20111;-73
2024/01/30 10:03:15;;;;;;;5.78;5.22;;;;;;;;;;6235125;28;20737;-73
2024/01/30 10:06:20;;;;;;;4.53;2.20;;;;;;;;;;6239611;28;20340;-74
2024/01/30 10:09:25;;;;;;;7.68;7.07;;;;;;;;;;6231330;28;20558;-75
2024/01/30 10:12:27;;;;;;;5.97;2.05;;;;;;;;;;6205007;28;20045;-75
2024/01/30 10:15:30;;;;;;;4.68;2.70;;;;;;;;;;6234746;28;20045;-75
2024/01/30 10:18:32;;;;;;;5.45;4.65;;;;;;;;;;6243391;28;20578;-74
2024/01/30 10:21:35;;;;;;;3.72;2.10;;;;;;;;;;6229904;28;20060;-74
2024/01/30 10:24:37;;;;;;;3.05;1.90;;;;;;;;;;6215570;28;20053;-74
2024/01/30 10:27:39;;;;;;;2.92;1.88;;;;;;;;;;6233137;28;20050;-74
2024/01/30 10:30:41;;;;;;;3.42;1.80;;;;;;;;;;6196079;28;20165;-73
2024/01/30 10:33:45;;;;;;;4.57;3.17;;;;;;;;;;6226127;28;20050;-74
2024/01/30 10:36:50;;;;;;;3.33;1.85;;;;;;;;;;6222568;28;20037;-74
2024/01/30 10:39:55;;;;;;;5.72;2.83;;;;;;;;;;6229257;28;20261;-73
2024/01/30 10:43:01;;;;;;;5.07;2.58;;;;;;;;;;6199224;28;20681;-73
2024/01/30 10:46:15;;;;;;;6.07;5.53;;;;;;;;;;6216009;28;20069;-73
2024/01/30 10:49:18;;;;;;;7.70;5.50;;;;;;;;;;6225209;28;20060;-75
2024/01/30 10:52:20;;;;;;;7.03;6.43;;;;;;;;;;6225438;28;20057;-73
2024/01/30 10:55:23;;;;;;;3.78;2.92;;;;;;;;;;6223843;28;20738;-73
2024/01/30 10:58:27;;;;;;;5.57;5.07;;;;;;;;;;6242397;28;20417;-74
2024/01/30 11:01:30;;;;;;;5.25;4.75;;;;;;;;;;6232336;28;20054;-74
2024/01/30 11:04:40;;;;;;;6.28;5.38;;;;;;;;;;6230443;28;20052;-73
2024/01/30 11:07:45;;;;;;;4.97;1.98;;;;;;;;;;6232837;28;20076;-73
2024/01/30 11:10:47;;;;;;;3.42;2.17;;;;;;;;;;6225348;28;20041;-72
2024/01/30 11:13:51;;;;;;;5.72;5.22;;;;;;;;;;6231047;28;20572;-74
2024/01/30 11:16:58;;;;;;;4.60;2.72;;;;;;;;;;6211263;28;20107;-74
2024/01/30 11:20:00;;;;;;;5.70;5.20;;;;;;;;;;6214104;28;20049;-75
2024/01/30 11:23:06;;;;;;;3.85;2.20;;;;;;;;;;6231476;28;20048;-73
2024/01/30 11:26:10;;;;;;;6.15;5.00;;;;;;;;;;6230808;28;20164;-73
2024/01/30 11:29:13;;;;;;;4.47;2.70;;;;;;;;;;6229471;28;20053;-74
2024/01/30 11:32:23;;;;;;;2.92;1.52;;;;;;;;;;6210527;28;20065;-74
2024/01/30 11:35:26;;;;;;;5.55;5.05;;;;;;;;;;6212169;28;20073;-72
2024/01/30 11:38:28;;;;;;;4.10;2.13;;;;;;;;;;6226083;28;20064;-73
2024/01/30 11:41:31;;;;;;;6.38;5.43;;;;;;;;;;6199468;28;20053;-72
2024/01/30 11:44:33;;;;;;;5.65;4.90;;;;;;;;;;6243374;28;20049;-74
2024/01/30 11:47:37;;;;;;;4.82;2.75;;;;;;;;;;6233524;28;20050;-73
2024/01/30 11:50:46;;;;;;;4.60;2.90;;;;;;;;;;6231307;28;20169;-73
2024/01/30 11:53:51;;;;;;;;;;;;;;;;;;6236292;28;20056;-73
2024/01/30 11:56:54;;;;;;;6.97;5.97;;;;;;;;;;6238548;28;19925;-73
2024/01/30 11:59:57;;;;;;;4.45;2.95;;;;;;;;;;6269138;28;20072;-73
2024/01/30 12:03:00;;;;;;;6.28;5.78;;;;;;;;;;6228263;28;20045;-74
2024/01/30 12:06:03;;;;;;;3.80;2.42;;;;;;;;;;6214378;28;20134;-73
2024/01/30 12:09:08;;;;;;;6.68;6.07;;;;;;;;;;6229928;28;20050;-73
2024/01/30 12:12:11;;;;;;;8.32;5.90;;;;;;;;;;6231861;28;20046;-73
2024/01/30 12:15:14;;;;;;;6.32;5.72;;;;;;;;;;6234492;28;20122;-73
2024/01/30 12:18:19;;;;;;;4.43;2.65;;;;;;;;;;6238199;28;20171;-73
2024/01/30 12:21:22;;;;;;;6.47;5.97;;;;;;;;;;6240889;28;20060;-73
2024/01/30 12:24:24;;;;;;;6.00;5.50;;;;;;;;;;6221556;28;20088;-73
2024/01/30 12:27:27;;;;;;;7.10;6.38;;;;;;;;;;6235389;28;20042;-73
2024/01/30 12:30:29;;;;;;;3.90;2.40;;;;;;;;;;6232168;28;20046;-73
2024/01/30 12:33:32;;;;;;;4.40;3.13;;;;;;;;;;6238022;28;20085;-73
2024/01/30 12:36:34;;;;;;;5.45;2.50;;;;;;;;;;6246593;28;20068;-73
2024/01/30 12:39:36;;;;;;;7.55;5.82;;;;;;;;;;6225256;28;20141;-73
2024/01/30 12:42:39;;;;;;;6.40;5.80;;;;;;;;;;6252105;28;20077;-73
2024/01/30 12:45:41;;;;;;;4.10;2.05;;;;;;;;;;6249379;28;20033;-72
2024/01/30 12:48:43;;;;;;;4.70;3.45;;;;;;;;;;6233339;28;20053;-73
2024/01/30 12:51:45;;;;;;;4.63;2.42;;;;;;;;;;6233588;28;20070;-73
2024/01/30 12:54:48;;;;;;;4.47;2.63;;;;;;;;;;6245228;28;20037;-73
2024/01/30 12:57:50;;;;;;;4.07;2.83;;;;;;;;;;6237831;28;20161;-71
2024/01/30 13:00:53;;;;;;;5.72;5.15;;;;;;;;;;6218892;28;20041;-73
2024/01/30 13:03:57;;;;;;;5.50;5.00;;;;;;;;;;6213431;28;20041;-72
2024/01/30 13:07:00;;;;;;;5.88;4.78;;;;;;;;;;6232548;28;20132;-73
2024/01/30 13:10:03;;;;;;;6.82;6.07;;;;;;;;;;6228444;28;20053;-73
2024/01/30 13:13:06;;;;;;;9.40;8.57;;;;;;;;;;6234005;28;20056;-72
2024/01/30 13:16:18;;;;;;;6.10;5.50;;;;;;;;;;6226341;28;20099;-72
2024/01/30 13:19:20;;;;;;;8.95;3.30;;;;;;;;;;6260453;28;20076;-74
2024/01/30 13:22:23;;;;;;;7.70;4.85;;;;;;;;;;6234139;28;20052;-74
2024/01/30 13:25:26;;;;;;;6.97;4.20;;;;;;;;;;6228618;28;20188;-73
2024/01/30 13:28:28;;;;;;;5.18;2.75;;;;;;;;;;6230774;28;20060;-73
2024/01/30 13:31:30;;;;;;;8.95;8.15;;;;;;;;;;6230990;28;20045;-73
2024/01/30 13:34:33;;;;;;;5.50;2.10;;;;;;;;;;6230625;28;20074;-73
2024/01/30 13:37:35;;;;;;;7.95;5.82;;;;;;;;;;6202976;28;20038;-73
2024/01/30 13:40:38;;;;;;;5.40;4.88;;;;;;;;;;6237121;28;20061;-73
2024/01/30 13:43:40;;;;;;;9.40;8.57;;;;;;;;;;6233588;28;20084;-73
2024/01/30 13:46:42;;;;;;;5.95;3.40;;;;;;;;;;6234185;28;20048;-73
2024/01/30 13:49:44;;;;;;;6.82;3.25;;;;;;;;;;6235102;28;20574;-73
2024/01/30 13:52:46;;;;;;;7.13;6.53;;;;;;;;;;6195407;28;20056;-74
2024/01/30 13:55:49;;;;;;;6.13;5.07;;;;;;;;;;6223913;28;20861;-73
2024/01/30 13:58:51;;;;;;;6.82;5.72;;;;;;;;;;6228582;28;20432;-74
2024/01/30 14:01:53;;;;;;;4.22;2.33;;;;;;;;;;6193744;28;20045;-72
2024/01/30 14:04:56;;;;;;;5.05;3.20;;;;;;;;;;6235330;28;20077;-73
2024/01/30 14:07:58;;;;;;;4.10;2.72;;;;;;;;;;6259174;28;20086;-74
2024/01/30 14:11:01;;;;;;;10.02;9.02;;;;;;;;;;6211018;28;20222;-73
2024/01/30 14:14:03;;;;;;;4.20;2.53;;;;;;;;;;6231207;28;20048;-72
2024/01/30 14:17:06;;;;;;;4.55;2.35;;;;;;;;;;6196572;28;20045;-72
2024/01/30 14:20:10;;;;;;;5.32;3.15;;;;;;;;;;6230996;28;20037;-72
2024/01/30 14:23:12;;;;;;;6.43;2.53;;;;;;;;;;6228637;28;20094;-72
2024/01/30 14:26:15;;;;;;;4.55;1.98;;;;;;;;;;6229617;28;20050;-72
2024/01/30 14:29:17;;;;;;;7.35;6.65;;;;;;;;;;6228374;28;20097;-72
2024/01/30 14:32:21;;;;;;;7.45;6.35;;;;;;;;;;6231958;28;20064;-73
2024/01/30 14:35:23;;;;;;;5.53;5.00;;;;;;;;;;6236527;28;20570;-74
2024/01/30 14:38:25;;;;;;;6.22;5.15;;;;;;;;;;6228964;28;20052;-73
2024/01/30 14:41:28;;;;;;;6.72;5.53;;;;;;;;;;6244723;28;20046;-73
2024/01/30 14:44:31;;;;;;;4.45;3.03;;;;;;;;;;6231029;28;20042;-73
2024/01/30 14:47:35;;;;;;;5.97;5.45;;;;;;;;;;6228255;28;20832;-74
2024/01/30 14:50:38;;;;;;;5.65;3.13;;;;;;;;;;6236234;28;20120;-73
2024/01/30 14:53:40;;;;;;;5.93;4.88;;;;;;;;;;6212412;28;20748;-73
2024/01/30 14:56:42;;;;;;;7.30;5.50;;;;;;;;;;6225849;28;20149;-74
2024/01/30 14:59:45;;;;;;;5.55;4.95;;;;;;;;;;6231623;28;20889;-74
2024/01/30 15:02:47;;;;;;;5.90;2.60;;;;;;;;;;6230888;28;20050;-74
2024/01/30 15:05:49;;;;;;;6.13;5.38;;;;;;;;;;6213510;28;20046;-73
2024/01/30 15:08:53;;;;;;;5.30;2.78;;;;;;;;;;6225083;28;20638;-73
2024/01/30 15:11:55;;;;;;;5.18;2.75;;;;;;;;;;6230340;28;20761;-73
2024/01/30 15:14:57;;;;;;;6.30;3.75;;;;;;;;;;6229155;28;20591;-74
2024/01/30 15:17:59;;;;;;;6.40;5.65;;;;;;;;;;6228054;28;20583;-74
2024/01/30 15:21:02;;;;;;;8.20;6.47;;;;;;;;;;6216660;28;20080;-75
2024/01/30 15:24:04;;;;;;;10.50;5.35;;;;;;;;;;6231233;28;20838;-74
2024/01/30 15:27:08;;;;;;;8.98;4.45;;;;;;;;;;6235549;28;20037;-74
2024/01/30 15:30:13;;;;;;;7.53;3.97;;;;;;;;;;6260496;28;20152;-74
2024/01/30 15:33:16;;;;;;;8.20;7.00;;;;;;;;;;6237561;28;20045;-74
2024/01/30 15:36:18;;;;;;;6.30;5.72;;;;;;;;;;6235498;28;20143;-75
2024/01/30 15:39:20;;;;;;;8.88;6.82;;;;;;;;;;6228303;28;20110;-74
2024/01/30 15:42:23;;;;;;;7.55;6.85;;;;;;;;;;6228459;28;20054;-74
2024/01/30 15:45:26;;;;;;;8.27;7.43;;;;;;;;;;6231554;28;20049;-73
2024/01/30 15:48:30;;;;;;;8.52;7.72;;;;;;;;;;6225172;28;20045;-74
2024/01/30 15:51:32;;;;;;;7.45;6.53;;;;;;;;;;6231069;28;20559;-73
2024/01/30 15:54:36;;;;;;;6.30;5.68;;;;;;;;;;6239548;28;20092;-75
2024/01/30 15:57:38;;;;;;;7.13;6.45;;;;;;;;;;6240094;28;20037;-75
2024/01/30 16:00:41;;;;;;;6.47;5.78;;;;;;;;;;6248398;28;20054;-76
2024/01/30 16:03:46;;;;;;;5.88;5.30;;;;;;;;;;6265410;28;20172;-75
2024/01/30 16:06:48;;;;;;;6.78;6.18;;;;;;;;;;6232887;28;20036;-74
2024/01/30 16:09:53;;;;;;;7.00;6.30;;;;;;;;;;6232766;28;20068;-74
2024/01/30 16:12:55;;;;;;;7.15;6.55;;;;;;;;;;6219839;28;20065;-74
2024/01/30 16:15:58;;;;;;;9.07;8.18;;;;;;;;;;6231902;28;20053;-73
2024/01/30 16:19:00;;;;;;;9.88;8.98;;;;;;;;;;6261863;28;20074;-74
2024/01/30 16:22:04;;;;;;;11.82;10.73;;;;;;;;;;6234595;28;20048;-74
2024/01/30 16:25:06;;;;;;;10.32;8.27;;;;;;;;;;6210462;28;20184;-73
2024/01/30 16:28:08;;;;;;;16.73;14.07;;;;;;;;;;6228544;28;20050;-74
2024/01/30 16:31:11;;;;;;;16.50;10.20;;;;;;;;;;6254098;28;20068;-73
2024/01/30 16:34:14;;;;;;;11.50;9.68;;;;;;;;;;6236588;28;20527;-74
2024/01/30 16:37:17;;;;;;;9.35;7.85;;;;;;;;;;6236070;28;20120;-75
2024/01/30 16:40:21;;;;;;;12.85;11.05;;;;;;;;;;6239672;28;20045;-76
2024/01/30 16:43:23;;;;;;;8.32;6.60;;;;;;;;;;6236759;28;20057;-73
2024/01/30 16:46:26;;;;;;;8.65;7.85;;;;;;;;;;6233996;28;20068;-72
2024/01/30 16:49:28;;;;;;;5.97;4.85;;;;;;;;;;6254740;28;20041;-73
2024/01/30 16:52:53;;;;;;;10.18;5.50;;;;;;;;;;6228653;28;20050;-74
2024/01/30 16:55:55;;;;;;;9.10;8.25;;;;;;;;;;6219605;28;20110;-73
2024/01/30 16:58:59;;;;;;;11.38;9.13;;;;;;;;;;6264966;28;20041;-73
2024/01/30 17:02:01;;;;;;;12.50;8.52;;;;;;;;;;6248331;28;20132;-74
2024/01/30 17:05:04;;;;;;;12.20;10.30;;;;;;;;;;6234899;28;20110;-73
2024/01/30 17:08:24;;;;;;;13.40;5.53;;;;;;;;;;6230485;28;20060;-73
2024/01/30 17:11:26;;;;;;;11.68;10.80;;;;;;;;;;6231819;28;20041;-73
2024/01/30 17:14:29;;;;;;;13.32;9.65;;;;;;;;;;6230782;28;20053;-74
2024/01/30 17:17:31;;;;;;;16.23;11.55;;;;;;;;;;6232796;28;20049;-72
2024/01/30 17:20:34;;;;;;;13.70;11.68;;;;;;;;;;6224435;28;20111;-74
2024/01/30 17:23:39;;;;;;;12.60;8.43;;;;;;;;;;6259703;28;20111;-73
2024/01/30 17:26:43;;;;;;;13.63;11.60;;;;;;;;;;6226758;28;20046;-74
2024/01/30 17:29:47;;;;;;;10.50;9.50;;;;;;;;;;6232849;28;20048;-74
2024/01/30 17:32:50;;;;;;;19.88;12.05;;;;;;;;;;6230265;28;20156;-75
2024/01/30 17:35:52;;;;;;;14.98;13.40;;;;;;;;;;6233843;28;20075;-74
2024/01/30 17:38:55;;;;;;;13.88;12.50;;;;;;;;;;6230537;28;20524;-74
2024/01/30 17:41:58;;;;;;;18.50;13.57;;;;;;;;;;6217161;28;20045;-74
2024/01/30 17:45:00;;;;;;;19.90;17.33;;;;;;;;;;6230264;28;20040;-75
2024/01/30 17:48:04;;;;;;;30.80;17.90;;;;;;;;;;6244688;28;20731;-74
2024/01/30 17:51:06;;;;;;;21.42;16.60;;;;;;;;;;6231722;28;20073;-74
2024/01/30 17:54:08;;;;;;;25.92;15.05;;;;;;;;;;6230576;28;20042;-74
2024/01/30 17:57:11;;;;;;;23.13;15.38;;;;;;;;;;6214915;28;20131;-75
2024/01/30 18:00:14;;;;;;;33.22;16.58;;;;;;;;;;6231613;28;20053;-75
2024/01/30 18:03:20;;;;;;;14.93;9.15;;;;;;;;;;6212244;28;20056;-75
2024/01/30 18:06:22;;;;;;;19.35;12.88;;;;;;;;;;6264108;28;20057;-75
2024/01/30 18:09:27;;;;;;;18.00;11.23;;;;;;;;;;6232751;28;20444;-75